sensor_id;sensor_type;location;lat;lon;timestamp;P1;durP1;ratioP1;P2;durP2;ratioP2
10731;SDS011;5417;42.686;23.244;2023-06-14T00:02:03;6.03;;;5.63;;
10731;SDS011;5417;42.686;23.244;2023-06-14T00:38:04;6.77;;;6.03;;
10731;SDS011;5417;42.686;23.244;2023-06-14T00:43:10;6.83;;;6.13;;
10731;SDS011;5417;42.686;23.244;2023-06-14T00:45:37;6.53;;;5.93;;
10731;SDS011;5417;42.686;23.244;2023-06-14T00:48:04;6.13;;;5.57;;
10731;SDS011;5417;42.686;23.244;2023-06-14T00:50:32;5.77;;;5.33;;
10731;SDS011;5417;42.686;23.244;2023-06-14T00:52:59;6.13;;;5.63;;
10731;SDS011;5417;42.686;23.244;2023-06-14T00:55:28;6.00;;;5.50;;
10731;SDS011;5417;42.686;23.244;2023-06-14T00:57:55;6.90;;;5.50;;
10731;SDS011;5417;42.686;23.244;2023-06-14T01:00:22;6.67;;;6.07;;
10731;SDS011;5417;42.686;23.244;2023-06-14T01:02:49;6.50;;;6.00;;
10731;SDS011;5417;42.686;23.244;2023-06-14T01:05:30;6.03;;;5.53;;
10731;SDS011;5417;42.686;23.244;2023-06-14T01:08:03;6.23;;;5.73;;
10731;SDS011;5417;42.686;23.244;2023-06-14T01:10:44;5.87;;;5.37;;
10731;SDS011;5417;42.686;23.244;2023-06-14T01:13:38;6.07;;;5.57;;
10731;SDS011;5417;42.686;23.244;2023-06-14T01:16:06;7.13;;;5.17;;
10731;SDS011;5417;42.686;23.244;2023-06-14T01:18:34;5.93;;;5.40;;
10731;SDS011;5417;42.686;23.244;2023-06-14T01:21:01;5.80;;;5.40;;
10731;SDS011;5417;42.686;23.244;2023-06-14T01:23:32;5.40;;;4.97;;
10731;SDS011;5417;42.686;23.244;2023-06-14T01:25:59;5.50;;;5.10;;
10731;SDS011;5417;42.686;23.244;2023-06-14T01:28:28;5.97;;;5.23;;
10731;SDS011;5417;42.686;23.244;2023-06-14T01:30:58;5.50;;;5.00;;
10731;SDS011;5417;42.686;23.244;2023-06-14T01:33:29;4.90;;;4.57;;
10731;SDS011;5417;42.686;23.244;2023-06-14T01:35:59;5.30;;;4.80;;
10731;SDS011;5417;42.686;23.244;2023-06-14T01:38:26;6.93;;;6.23;;
10731;SDS011;5417;42.686;23.244;2023-06-14T01:40:56;9.03;;;8.17;;
10731;SDS011;5417;42.686;23.244;2023-06-14T01:43:25;9.73;;;8.77;;
10731;SDS011;5417;42.686;23.244;2023-06-14T01:45:53;9.10;;;8.40;;
10731;SDS011;5417;42.686;23.244;2023-06-14T01:48:21;9.53;;;8.73;;
10731;SDS011;5417;42.686;23.244;2023-06-14T01:50:48;8.67;;;7.77;;
10731;SDS011;5417;42.686;23.244;2023-06-14T01:53:15;6.57;;;5.97;;
10731;SDS011;5417;42.686;23.244;2023-06-14T01:55:42;6.20;;;5.80;;
10731;SDS011;5417;42.686;23.244;2023-06-14T01:58:11;5.70;;;5.23;;
10731;SDS011;5417;42.686;23.244;2023-06-14T02:00:38;5.20;;;4.80;;
10731;SDS011;5417;42.686;23.244;2023-06-14T02:03:05;5.23;;;4.70;;
10731;SDS011;5417;42.686;23.244;2023-06-14T02:05:32;5.40;;;5.00;;
10731;SDS011;5417;42.686;23.244;2023-06-14T02:07:59;5.60;;;5.03;;
10731;SDS011;5417;42.686;23.244;2023-06-14T02:10:26;5.33;;;5.03;;
10731;SDS011;5417;42.686;23.244;2023-06-14T02:12:53;5.93;;;5.43;;
10731;SDS011;5417;42.686;23.244;2023-06-14T02:15:21;5.57;;;5.07;;
10731;SDS011;5417;42.686;23.244;2023-06-14T02:17:48;6.23;;;5.63;;
10731;SDS011;5417;42.686;23.244;2023-06-14T02:20:16;5.40;;;5.00;;
10731;SDS011;5417;42.686;23.244;2023-06-14T02:22:43;5.37;;;5.00;;
10731;SDS011;5417;42.686;23.244;2023-06-14T02:25:11;5.70;;;5.20;;
10731;SDS011;5417;42.686;23.244;2023-06-14T02:28:09;5.30;;;4.90;;
10731;SDS011;5417;42.686;23.244;2023-06-14T02:30:32;5.53;;;5.03;;
10731;SDS011;5417;42.686;23.244;2023-06-14T02:32:59;5.63;;;5.33;;
10731;SDS011;5417;42.686;23.244;2023-06-14T02:35:26;6.23;;;5.40;;
10731;SDS011;5417;42.686;23.244;2023-06-14T02:37:53;5.90;;;5.50;;
10731;SDS011;5417;42.686;23.244;2023-06-14T02:40:20;6.67;;;5.50;;
10731;SDS011;5417;42.686;23.244;2023-06-14T02:42:47;5.77;;;5.27;;
10731;SDS011;5417;42.686;23.244;2023-06-14T02:45:14;6.07;;;5.67;;
10731;SDS011;5417;42.686;23.244;2023-06-14T02:47:42;5.90;;;5.40;;
10731;SDS011;5417;42.686;23.244;2023-06-14T02:50:09;5.90;;;5.50;;
10731;SDS011;5417;42.686;23.244;2023-06-14T02:52:36;5.87;;;5.37;;
10731;SDS011;5417;42.686;23.244;2023-06-14T02:55:03;6.00;;;5.60;;
10731;SDS011;5417;42.686;23.244;2023-06-14T02:57:31;6.53;;;5.93;;
10731;SDS011;5417;42.686;23.244;2023-06-14T02:59:58;6.07;;;5.50;;
10731;SDS011;5417;42.686;23.244;2023-06-14T03:02:25;6.13;;;5.60;;
10731;SDS011;5417;42.686;23.244;2023-06-14T03:04:53;5.27;;;4.97;;
10731;SDS011;5417;42.686;23.244;2023-06-14T03:14:11;6.03;;;5.53;;
10731;SDS011;5417;42.686;23.244;2023-06-14T03:16:38;5.70;;;5.20;;
10731;SDS011;5417;42.686;23.244;2023-06-14T03:19:06;5.33;;;5.03;;
10731;SDS011;5417;42.686;23.244;2023-06-14T03:21:34;5.50;;;5.10;;
10731;SDS011;5417;42.686;23.244;2023-06-14T03:24:01;5.90;;;5.50;;
10731;SDS011;5417;42.686;23.244;2023-06-14T03:26:28;5.43;;;5.03;;
10731;SDS011;5417;42.686;23.244;2023-06-14T03:28:56;5.70;;;5.20;;
10731;SDS011;5417;42.686;23.244;2023-06-14T03:31:23;6.00;;;5.53;;
10731;SDS011;5417;42.686;23.244;2023-06-14T03:33:50;5.63;;;5.23;;
10731;SDS011;5417;42.686;23.244;2023-06-14T03:36:16;5.60;;;5.20;;
10731;SDS011;5417;42.686;23.244;2023-06-14T03:38:45;6.37;;;5.97;;
10731;SDS011;5417;42.686;23.244;2023-06-14T03:41:32;5.73;;;5.27;;
10731;SDS011;5417;42.686;23.244;2023-06-14T03:43:58;5.83;;;5.43;;
10731;SDS011;5417;42.686;23.244;2023-06-14T03:46:25;5.57;;;5.27;;
10731;SDS011;5417;42.686;23.244;2023-06-14T03:48:52;5.20;;;4.90;;
10731;SDS011;5417;42.686;23.244;2023-06-14T03:51:19;5.90;;;5.50;;
10731;SDS011;5417;42.686;23.244;2023-06-14T03:53:47;6.33;;;5.83;;
10731;SDS011;5417;42.686;23.244;2023-06-14T03:56:14;5.47;;;5.00;;
10731;SDS011;5417;42.686;23.244;2023-06-14T03:58:41;5.97;;;5.57;;
10731;SDS011;5417;42.686;23.244;2023-06-14T04:01:39;6.13;;;5.73;;
10731;SDS011;5417;42.686;23.244;2023-06-14T04:04:29;5.90;;;5.57;;
10731;SDS011;5417;42.686;23.244;2023-06-14T04:06:54;5.73;;;5.23;;
10731;SDS011;5417;42.686;23.244;2023-06-14T04:09:23;5.37;;;5.03;;
10731;SDS011;5417;42.686;23.244;2023-06-14T04:11:51;5.63;;;5.23;;
10731;SDS011;5417;42.686;23.244;2023-06-14T04:14:18;5.53;;;5.03;;
10731;SDS011;5417;42.686;23.244;2023-06-14T04:16:45;5.07;;;4.57;;
10731;SDS011;5417;42.686;23.244;2023-06-14T04:19:12;4.30;;;4.00;;
10731;SDS011;5417;42.686;23.244;2023-06-14T04:21:39;4.33;;;3.93;;
10731;SDS011;5417;42.686;23.244;2023-06-14T04:24:06;4.87;;;4.50;;
10731;SDS011;5417;42.686;23.244;2023-06-14T04:26:40;4.77;;;4.47;;
10731;SDS011;5417;42.686;23.244;2023-06-14T04:29:09;5.03;;;4.30;;
10731;SDS011;5417;42.686;23.244;2023-06-14T04:31:39;6.43;;;5.73;;
10731;SDS011;5417;42.686;23.244;2023-06-14T04:34:06;6.67;;;5.93;;
10731;SDS011;5417;42.686;23.244;2023-06-14T04:36:33;7.00;;;5.30;;
10731;SDS011;5417;42.686;23.244;2023-06-14T04:39:02;5.77;;;5.37;;
10731;SDS011;5417;42.686;23.244;2023-06-14T04:41:29;6.83;;;6.27;;
10731;SDS011;5417;42.686;23.244;2023-06-14T04:43:58;7.03;;;5.93;;
10731;SDS011;5417;42.686;23.244;2023-06-14T04:46:26;5.97;;;5.57;;
10731;SDS011;5417;42.686;23.244;2023-06-14T04:48:53;5.73;;;5.43;;
10731;SDS011;5417;42.686;23.244;2023-06-14T04:51:21;6.70;;;6.07;;
10731;SDS011;5417;42.686;23.244;2023-06-14T04:53:54;5.20;;;4.73;;
10731;SDS011;5417;42.686;23.244;2023-06-14T04:56:23;6.53;;;6.03;;
10731;SDS011;5417;42.686;23.244;2023-06-14T04:58:51;8.43;;;5.97;;
10731;SDS011;5417;42.686;23.244;2023-06-14T05:01:20;5.63;;;5.23;;
10731;SDS011;5417;42.686;23.244;2023-06-14T05:03:48;7.40;;;5.93;;
10731;SDS011;5417;42.686;23.244;2023-06-14T05:06:15;6.17;;;5.73;;
10731;SDS011;5417;42.686;23.244;2023-06-14T05:08:42;6.20;;;5.70;;
10731;SDS011;5417;42.686;23.244;2023-06-14T05:11:09;6.10;;;5.70;;
10731;SDS011;5417;42.686;23.244;2023-06-14T05:13:36;7.00;;;6.40;;
10731;SDS011;5417;42.686;23.244;2023-06-14T05:16:04;6.63;;;6.13;;
10731;SDS011;5417;42.686;23.244;2023-06-14T05:18:33;7.40;;;6.83;;
10731;SDS011;5417;42.686;23.244;2023-06-14T05:21:00;7.17;;;6.67;;
10731;SDS011;5417;42.686;23.244;2023-06-14T05:23:29;7.07;;;6.37;;
10731;SDS011;5417;42.686;23.244;2023-06-14T05:25:55;7.20;;;6.60;;
10731;SDS011;5417;42.686;23.244;2023-06-14T05:28:22;7.67;;;6.97;;
10731;SDS011;5417;42.686;23.244;2023-06-14T05:30:50;10.07;;;7.70;;
10731;SDS011;5417;42.686;23.244;2023-06-14T05:33:19;7.67;;;6.93;;
10731;SDS011;5417;42.686;23.244;2023-06-14T05:35:47;7.40;;;6.90;;
10731;SDS011;5417;42.686;23.244;2023-06-14T05:38:14;8.17;;;7.47;;
10731;SDS011;5417;42.686;23.244;2023-06-14T05:40:41;7.20;;;6.60;;
10731;SDS011;5417;42.686;23.244;2023-06-14T05:43:08;7.43;;;6.93;;
10731;SDS011;5417;42.686;23.244;2023-06-14T05:45:35;8.07;;;7.40;;
10731;SDS011;5417;42.686;23.244;2023-06-14T05:48:03;7.23;;;6.83;;
10731;SDS011;5417;42.686;23.244;2023-06-14T05:50:30;7.60;;;7.03;;
10731;SDS011;5417;42.686;23.244;2023-06-14T05:52:58;8.77;;;7.93;;
10731;SDS011;5417;42.686;23.244;2023-06-14T05:55:25;8.77;;;8.03;;
10731;SDS011;5417;42.686;23.244;2023-06-14T05:57:52;7.87;;;7.23;;
10731;SDS011;5417;42.686;23.244;2023-06-14T06:00:19;8.40;;;7.70;;
10731;SDS011;5417;42.686;23.244;2023-06-14T06:02:47;8.10;;;7.23;;
10731;SDS011;5417;42.686;23.244;2023-06-14T06:05:14;8.17;;;7.57;;
10731;SDS011;5417;42.686;23.244;2023-06-14T06:07:41;7.77;;;7.27;;
10731;SDS011;5417;42.686;23.244;2023-06-14T06:10:11;8.13;;;7.33;;
10731;SDS011;5417;42.686;23.244;2023-06-14T06:12:38;7.87;;;7.20;;
10731;SDS011;5417;42.686;23.244;2023-06-14T06:16:23;8.03;;;7.33;;
10731;SDS011;5417;42.686;23.244;2023-06-14T06:18:19;7.03;;;6.50;;
10731;SDS011;5417;42.686;23.244;2023-06-14T06:20:45;7.23;;;6.83;;
10731;SDS011;5417;42.686;23.244;2023-06-14T06:23:13;7.70;;;7.10;;
10731;SDS011;5417;42.686;23.244;2023-06-14T06:25:42;8.20;;;7.43;;
10731;SDS011;5417;42.686;23.244;2023-06-14T06:28:09;7.33;;;6.87;;
10731;SDS011;5417;42.686;23.244;2023-06-14T06:30:36;8.53;;;7.90;;
10731;SDS011;5417;42.686;23.244;2023-06-14T06:33:03;8.83;;;8.03;;
10731;SDS011;5417;42.686;23.244;2023-06-14T06:35:29;8.63;;;8.03;;
10731;SDS011;5417;42.686;23.244;2023-06-14T06:37:58;8.77;;;8.07;;
10731;SDS011;5417;42.686;23.244;2023-06-14T06:40:26;9.90;;;8.90;;
10731;SDS011;5417;42.686;23.244;2023-06-14T06:45:41;8.80;;;8.00;;
10731;SDS011;5417;42.686;23.244;2023-06-14T06:48:08;8.93;;;8.23;;
10731;SDS011;5417;42.686;23.244;2023-06-14T06:50:35;9.30;;;8.60;;
10731;SDS011;5417;42.686;23.244;2023-06-14T06:53:02;10.67;;;9.67;;
10731;SDS011;5417;42.686;23.244;2023-06-14T06:55:30;9.57;;;8.60;;
10731;SDS011;5417;42.686;23.244;2023-06-14T06:57:57;9.00;;;8.20;;
10731;SDS011;5417;42.686;23.244;2023-06-14T07:00:26;9.47;;;8.77;;
10731;SDS011;5417;42.686;23.244;2023-06-14T07:02:53;10.00;;;9.20;;
10731;SDS011;5417;42.686;23.244;2023-06-14T07:05:22;10.07;;;9.13;;
10731;SDS011;5417;42.686;23.244;2023-06-14T07:07:49;10.23;;;9.23;;
10731;SDS011;5417;42.686;23.244;2023-06-14T07:10:16;9.63;;;8.90;;
10731;SDS011;5417;42.686;23.244;2023-06-14T07:12:43;9.27;;;8.47;;
10731;SDS011;5417;42.686;23.244;2023-06-14T07:15:10;9.60;;;8.73;;
10731;SDS011;5417;42.686;23.244;2023-06-14T07:17:39;9.93;;;9.13;;
10731;SDS011;5417;42.686;23.244;2023-06-14T07:29:39;12.43;;;11.37;;
10731;SDS011;5417;42.686;23.244;2023-06-14T07:32:20;12.20;;;10.90;;
10731;SDS011;5417;42.686;23.244;2023-06-14T07:37:31;12.37;;;10.20;;
10731;SDS011;5417;42.686;23.244;2023-06-14T07:39:59;11.63;;;10.73;;
10731;SDS011;5417;42.686;23.244;2023-06-14T07:42:28;10.27;;;9.47;;
10731;SDS011;5417;42.686;23.244;2023-06-14T07:44:55;11.47;;;10.47;;
10731;SDS011;5417;42.686;23.244;2023-06-14T07:47:22;10.70;;;9.73;;
10731;SDS011;5417;42.686;23.244;2023-06-14T07:49:49;13.10;;;11.77;;
10731;SDS011;5417;42.686;23.244;2023-06-14T07:52:17;12.13;;;11.13;;
10731;SDS011;5417;42.686;23.244;2023-06-14T07:54:44;11.80;;;10.60;;
10731;SDS011;5417;42.686;23.244;2023-06-14T07:58:14;12.70;;;11.50;;
10731;SDS011;5417;42.686;23.244;2023-06-14T08:00:24;14.80;;;11.27;;
10731;SDS011;5417;42.686;23.244;2023-06-14T08:02:51;11.90;;;10.80;;
10731;SDS011;5417;42.686;23.244;2023-06-14T08:05:23;11.87;;;10.80;;
10731;SDS011;5417;42.686;23.244;2023-06-14T08:07:52;13.00;;;11.77;;
10731;SDS011;5417;42.686;23.244;2023-06-14T08:10:19;10.77;;;9.93;;
10731;SDS011;5417;42.686;23.244;2023-06-14T08:12:47;12.27;;;10.87;;
10731;SDS011;5417;42.686;23.244;2023-06-14T08:15:15;12.40;;;11.40;;
10731;SDS011;5417;42.686;23.244;2023-06-14T08:17:42;11.17;;;10.17;;
10731;SDS011;5417;42.686;23.244;2023-06-14T08:20:09;11.80;;;10.80;;
10731;SDS011;5417;42.686;23.244;2023-06-14T08:22:37;12.83;;;11.37;;
10731;SDS011;5417;42.686;23.244;2023-06-14T08:25:06;11.13;;;10.13;;
10731;SDS011;5417;42.686;23.244;2023-06-14T08:27:34;10.33;;;9.53;;
10731;SDS011;5417;42.686;23.244;2023-06-14T08:30:01;10.70;;;9.63;;
10731;SDS011;5417;42.686;23.244;2023-06-14T08:32:28;14.00;;;12.70;;
10731;SDS011;5417;42.686;23.244;2023-06-14T08:34:55;13.97;;;12.73;;
10731;SDS011;5417;42.686;23.244;2023-06-14T08:37:22;13.80;;;12.50;;
10731;SDS011;5417;42.686;23.244;2023-06-14T08:39:49;15.07;;;13.67;;
10731;SDS011;5417;42.686;23.244;2023-06-14T08:42:18;14.63;;;13.17;;
10731;SDS011;5417;42.686;23.244;2023-06-14T08:44:47;15.37;;;13.83;;
10731;SDS011;5417;42.686;23.244;2023-06-14T08:47:15;15.27;;;13.77;;
10731;SDS011;5417;42.686;23.244;2023-06-14T08:49:45;13.60;;;12.17;;
10731;SDS011;5417;42.686;23.244;2023-06-14T08:52:13;14.23;;;12.93;;
10731;SDS011;5417;42.686;23.244;2023-06-14T08:54:45;12.77;;;11.53;;
10731;SDS011;5417;42.686;23.244;2023-06-14T08:57:14;12.60;;;11.30;;
10731;SDS011;5417;42.686;23.244;2023-06-14T08:59:45;14.73;;;13.17;;
10731;SDS011;5417;42.686;23.244;2023-06-14T09:02:17;20.33;;;13.73;;
10731;SDS011;5417;42.686;23.244;2023-06-14T09:04:47;77.03;;;19.47;;
10731;SDS011;5417;42.686;23.244;2023-06-14T09:07:15;28.83;;;14.47;;
10731;SDS011;5417;42.686;23.244;2023-06-14T09:09:42;14.60;;;13.23;;
10731;SDS011;5417;42.686;23.244;2023-06-14T09:12:10;15.07;;;13.57;;
10731;SDS011;5417;42.686;23.244;2023-06-14T09:14:37;13.80;;;12.57;;
10731;SDS011;5417;42.686;23.244;2023-06-14T09:17:08;13.33;;;12.07;;
10731;SDS011;5417;42.686;23.244;2023-06-14T09:19:39;13.93;;;12.63;;
10731;SDS011;5417;42.686;23.244;2023-06-14T09:22:06;12.63;;;11.50;;
10731;SDS011;5417;42.686;23.244;2023-06-14T09:24:36;13.20;;;12.00;;
10731;SDS011;5417;42.686;23.244;2023-06-14T09:27:04;12.73;;;11.63;;
10731;SDS011;5417;42.686;23.244;2023-06-14T09:29:31;13.13;;;12.03;;
10731;SDS011;5417;42.686;23.244;2023-06-14T09:31:58;12.67;;;11.43;;
10731;SDS011;5417;42.686;23.244;2023-06-14T09:34:27;11.87;;;10.87;;
10731;SDS011;5417;42.686;23.244;2023-06-14T09:37:56;12.60;;;11.50;;
10731;SDS011;5417;42.686;23.244;2023-06-14T09:39:58;12.70;;;11.50;;
10731;SDS011;5417;42.686;23.244;2023-06-14T09:42:25;13.67;;;11.83;;
10731;SDS011;5417;42.686;23.244;2023-06-14T09:44:53;12.33;;;11.17;;
10731;SDS011;5417;42.686;23.244;2023-06-14T09:47:21;14.03;;;12.23;;
10731;SDS011;5417;42.686;23.244;2023-06-14T09:49:50;12.30;;;11.30;;
10731;SDS011;5417;42.686;23.244;2023-06-14T09:55:49;13.30;;;12.17;;
10731;SDS011;5417;42.686;23.244;2023-06-14T09:58:19;13.90;;;12.70;;
10731;SDS011;5417;42.686;23.244;2023-06-14T10:00:49;13.23;;;12.10;;
10731;SDS011;5417;42.686;23.244;2023-06-14T10:03:20;13.97;;;12.73;;
10731;SDS011;5417;42.686;23.244;2023-06-14T10:05:51;13.03;;;11.83;;
10731;SDS011;5417;42.686;23.244;2023-06-14T10:08:19;11.33;;;10.53;;
10731;SDS011;5417;42.686;23.244;2023-06-14T10:10:52;12.80;;;11.50;;
10731;SDS011;5417;42.686;23.244;2023-06-14T10:13:19;14.33;;;12.97;;
10731;SDS011;5417;42.686;23.244;2023-06-14T10:15:58;14.80;;;13.43;;
10731;SDS011;5417;42.686;23.244;2023-06-14T10:18:32;14.90;;;13.57;;
10731;SDS011;5417;42.686;23.244;2023-06-14T10:21:12;13.37;;;12.17;;
10731;SDS011;5417;42.686;23.244;2023-06-14T10:23:45;13.07;;;11.37;;
10731;SDS011;5417;42.686;23.244;2023-06-14T10:26:20;12.67;;;11.47;;
10731;SDS011;5417;42.686;23.244;2023-06-14T10:28:58;14.63;;;13.33;;
10731;SDS011;5417;42.686;23.244;2023-06-14T10:31:42;14.53;;;13.13;;
10731;SDS011;5417;42.686;23.244;2023-06-14T10:34:10;13.93;;;12.70;;
10731;SDS011;5417;42.686;23.244;2023-06-14T10:36:42;13.47;;;12.17;;
10731;SDS011;5417;42.686;23.244;2023-06-14T10:39:11;14.07;;;12.77;;
10731;SDS011;5417;42.686;23.244;2023-06-14T10:41:41;14.77;;;13.47;;
10731;SDS011;5417;42.686;23.244;2023-06-14T10:47:40;14.47;;;13.20;;
10731;SDS011;5417;42.686;23.244;2023-06-14T10:50:08;15.07;;;13.60;;
10731;SDS011;5417;42.686;23.244;2023-06-14T10:59:44;13.43;;;12.13;;
10731;SDS011;5417;42.686;23.244;2023-06-14T11:02:18;13.53;;;12.37;;
10731;SDS011;5417;42.686;23.244;2023-06-14T11:06:08;13.27;;;11.97;;
10731;SDS011;5417;42.686;23.244;2023-06-14T11:11:25;12.67;;;11.53;;
10731;SDS011;5417;42.686;23.244;2023-06-14T11:13:59;12.97;;;11.77;;
10731;SDS011;5417;42.686;23.244;2023-06-14T11:16:28;12.50;;;11.30;;
10731;SDS011;5417;42.686;23.244;2023-06-14T11:18:57;14.20;;;12.83;;
10731;SDS011;5417;42.686;23.244;2023-06-14T11:21:24;12.63;;;11.63;;
10731;SDS011;5417;42.686;23.244;2023-06-14T11:23:56;13.63;;;11.60;;
10731;SDS011;5417;42.686;23.244;2023-06-14T11:26:26;13.27;;;12.03;;
10731;SDS011;5417;42.686;23.244;2023-06-14T11:28:57;13.33;;;12.23;;
10731;SDS011;5417;42.686;23.244;2023-06-14T11:31:55;12.70;;;11.70;;
10731;SDS011;5417;42.686;23.244;2023-06-14T11:34:13;12.67;;;11.43;;
10731;SDS011;5417;42.686;23.244;2023-06-14T11:36:41;12.57;;;11.37;;
10731;SDS011;5417;42.686;23.244;2023-06-14T11:39:08;12.73;;;11.63;;
10731;SDS011;5417;42.686;23.244;2023-06-14T11:41:36;12.50;;;11.30;;
10731;SDS011;5417;42.686;23.244;2023-06-14T11:44:04;12.30;;;11.30;;
10731;SDS011;5417;42.686;23.244;2023-06-14T11:46:32;12.13;;;11.03;;
10731;SDS011;5417;42.686;23.244;2023-06-14T11:49:00;12.67;;;11.47;;
10731;SDS011;5417;42.686;23.244;2023-06-14T11:51:30;12.40;;;11.33;;
10731;SDS011;5417;42.686;23.244;2023-06-14T11:53:57;12.47;;;11.37;;
10731;SDS011;5417;42.686;23.244;2023-06-14T11:56:24;12.20;;;10.73;;
10731;SDS011;5417;42.686;23.244;2023-06-14T11:58:52;11.33;;;10.43;;
10731;SDS011;5417;42.686;23.244;2023-06-14T12:01:21;10.97;;;10.07;;
10731;SDS011;5417;42.686;23.244;2023-06-14T12:03:48;12.03;;;11.03;;
10731;SDS011;5417;42.686;23.244;2023-06-14T12:06:25;10.37;;;9.57;;
10731;SDS011;5417;42.686;23.244;2023-06-14T12:08:57;11.67;;;10.67;;
10731;SDS011;5417;42.686;23.244;2023-06-14T12:11:24;11.37;;;10.37;;
10731;SDS011;5417;42.686;23.244;2023-06-14T12:13:58;11.07;;;10.17;;
10731;SDS011;5417;42.686;23.244;2023-06-14T12:16:29;9.73;;;8.73;;
10731;SDS011;5417;42.686;23.244;2023-06-14T12:19:00;12.10;;;9.50;;
10731;SDS011;5417;42.686;23.244;2023-06-14T12:21:28;9.83;;;9.10;;
10731;SDS011;5417;42.686;23.244;2023-06-14T12:23:55;9.90;;;9.10;;
10731;SDS011;5417;42.686;23.244;2023-06-14T12:26:22;10.50;;;9.60;;
10731;SDS011;5417;42.686;23.244;2023-06-14T12:28:52;10.13;;;9.20;;
10731;SDS011;5417;42.686;23.244;2023-06-14T12:31:19;10.77;;;9.53;;
10731;SDS011;5417;42.686;23.244;2023-06-14T12:33:46;8.40;;;7.80;;
10731;SDS011;5417;42.686;23.244;2023-06-14T12:36:14;9.67;;;8.87;;
10731;SDS011;5417;42.686;23.244;2023-06-14T12:38:43;9.03;;;8.33;;
10731;SDS011;5417;42.686;23.244;2023-06-14T12:41:11;9.40;;;8.47;;
10731;SDS011;5417;42.686;23.244;2023-06-14T12:43:39;9.90;;;9.00;;
10731;SDS011;5417;42.686;23.244;2023-06-14T12:47:09;9.40;;;8.70;;
10731;SDS011;5417;42.686;23.244;2023-06-14T12:49:20;8.67;;;8.07;;
10731;SDS011;5417;42.686;23.244;2023-06-14T12:52:50;9.57;;;8.33;;
10731;SDS011;5417;42.686;23.244;2023-06-14T12:55:14;10.23;;;8.67;;
10731;SDS011;5417;42.686;23.244;2023-06-14T12:57:41;8.73;;;8.17;;
10731;SDS011;5417;42.686;23.244;2023-06-14T13:00:08;8.20;;;7.70;;
10731;SDS011;5417;42.686;23.244;2023-06-14T13:02:36;7.47;;;6.87;;
10731;SDS011;5417;42.686;23.244;2023-06-14T13:05:03;7.67;;;7.07;;
10731;SDS011;5417;42.686;23.244;2023-06-14T13:07:30;8.30;;;7.70;;
10731;SDS011;5417;42.686;23.244;2023-06-14T13:09:57;7.83;;;7.13;;
10731;SDS011;5417;42.686;23.244;2023-06-14T13:12:25;8.33;;;7.67;;
10731;SDS011;5417;42.686;23.244;2023-06-14T13:14:52;8.63;;;7.77;;
10731;SDS011;5417;42.686;23.244;2023-06-14T13:17:19;8.70;;;7.80;;
10731;SDS011;5417;42.686;23.244;2023-06-14T13:19:46;7.90;;;7.30;;
10731;SDS011;5417;42.686;23.244;2023-06-14T13:22:13;8.30;;;7.70;;
10731;SDS011;5417;42.686;23.244;2023-06-14T13:24:40;7.90;;;7.20;;
10731;SDS011;5417;42.686;23.244;2023-06-14T13:27:06;7.93;;;7.33;;
10731;SDS011;5417;42.686;23.244;2023-06-14T13:29:40;7.77;;;7.17;;
10731;SDS011;5417;42.686;23.244;2023-06-14T13:32:07;7.33;;;6.83;;
10731;SDS011;5417;42.686;23.244;2023-06-14T13:34:34;7.20;;;6.70;;
10731;SDS011;5417;42.686;23.244;2023-06-14T13:37:01;6.20;;;5.83;;
10731;SDS011;5417;42.686;23.244;2023-06-14T13:40:18;6.17;;;5.80;;
10731;SDS011;5417;42.686;23.244;2023-06-14T13:42:39;7.10;;;6.60;;
10731;SDS011;5417;42.686;23.244;2023-06-14T13:45:11;8.07;;;7.37;;
10731;SDS011;5417;42.686;23.244;2023-06-14T13:47:38;25.73;;;22.10;;
10731;SDS011;5417;42.686;23.244;2023-06-14T13:50:05;8.80;;;7.93;;
10731;SDS011;5417;42.686;23.244;2023-06-14T13:52:35;9.00;;;8.10;;
10731;SDS011;5417;42.686;23.244;2023-06-14T13:55:02;8.30;;;7.50;;
10731;SDS011;5417;42.686;23.244;2023-06-14T13:57:30;9.33;;;8.60;;
10731;SDS011;5417;42.686;23.244;2023-06-14T13:59:57;8.30;;;7.57;;
10731;SDS011;5417;42.686;23.244;2023-06-14T14:02:27;7.90;;;7.40;;
10731;SDS011;5417;42.686;23.244;2023-06-14T14:04:54;6.97;;;6.47;;
10731;SDS011;5417;42.686;23.244;2023-06-14T14:07:22;7.93;;;7.27;;
10731;SDS011;5417;42.686;23.244;2023-06-14T14:09:49;8.77;;;7.97;;
10731;SDS011;5417;42.686;23.244;2023-06-14T14:12:16;8.37;;;7.77;;
10731;SDS011;5417;42.686;23.244;2023-06-14T14:14:43;10.77;;;9.67;;
10731;SDS011;5417;42.686;23.244;2023-06-14T14:17:10;12.33;;;11.30;;
10731;SDS011;5417;42.686;23.244;2023-06-14T14:19:38;8.80;;;7.90;;
10731;SDS011;5417;42.686;23.244;2023-06-14T14:22:05;7.97;;;7.47;;
10731;SDS011;5417;42.686;23.244;2023-06-14T14:24:32;7.40;;;7.00;;
10731;SDS011;5417;42.686;23.244;2023-06-14T14:26:59;7.13;;;6.47;;
10731;SDS011;5417;42.686;23.244;2023-06-14T14:29:25;7.17;;;6.57;;
10731;SDS011;5417;42.686;23.244;2023-06-14T14:31:54;8.53;;;7.83;;
10731;SDS011;5417;42.686;23.244;2023-06-14T14:34:22;8.97;;;8.27;;
10731;SDS011;5417;42.686;23.244;2023-06-14T14:36:50;9.10;;;8.27;;
10731;SDS011;5417;42.686;23.244;2023-06-14T14:39:17;8.53;;;7.93;;
10731;SDS011;5417;42.686;23.244;2023-06-14T14:41:44;11.27;;;10.17;;
10731;SDS011;5417;42.686;23.244;2023-06-14T14:44:11;14.23;;;12.97;;
10731;SDS011;5417;42.686;23.244;2023-06-14T14:46:38;9.13;;;8.33;;
10731;SDS011;5417;42.686;23.244;2023-06-14T14:49:04;8.17;;;7.53;;
10731;SDS011;5417;42.686;23.244;2023-06-14T14:51:31;7.97;;;7.43;;
10731;SDS011;5417;42.686;23.244;2023-06-14T14:54:10;8.33;;;7.63;;
10731;SDS011;5417;42.686;23.244;2023-06-14T14:56:38;7.17;;;6.67;;
10731;SDS011;5417;42.686;23.244;2023-06-14T14:59:05;7.60;;;7.10;;
10731;SDS011;5417;42.686;23.244;2023-06-14T15:01:32;11.00;;;10.07;;
10731;SDS011;5417;42.686;23.244;2023-06-14T15:03:58;8.37;;;7.57;;
10731;SDS011;5417;42.686;23.244;2023-06-14T15:06:26;7.53;;;6.93;;
10731;SDS011;5417;42.686;23.244;2023-06-14T15:08:53;8.30;;;7.60;;
10731;SDS011;5417;42.686;23.244;2023-06-14T15:11:21;8.27;;;7.67;;
10731;SDS011;5417;42.686;23.244;2023-06-14T15:13:48;8.87;;;8.03;;
10731;SDS011;5417;42.686;23.244;2023-06-14T15:16:15;9.03;;;8.37;;
10731;SDS011;5417;42.686;23.244;2023-06-14T15:18:42;8.43;;;7.83;;
10731;SDS011;5417;42.686;23.244;2023-06-14T15:21:09;8.27;;;7.57;;
10731;SDS011;5417;42.686;23.244;2023-06-14T15:23:35;7.70;;;7.13;;
10731;SDS011;5417;42.686;23.244;2023-06-14T15:26:02;7.73;;;7.13;;
10731;SDS011;5417;42.686;23.244;2023-06-14T15:28:30;8.63;;;8.03;;
10731;SDS011;5417;42.686;23.244;2023-06-14T15:30:58;8.37;;;7.77;;
10731;SDS011;5417;42.686;23.244;2023-06-14T15:33:25;9.13;;;8.27;;
10731;SDS011;5417;42.686;23.244;2023-06-14T15:35:52;9.13;;;8.40;;
10731;SDS011;5417;42.686;23.244;2023-06-14T15:38:19;9.00;;;8.10;;
10731;SDS011;5417;42.686;23.244;2023-06-14T15:40:46;9.73;;;8.80;;
10731;SDS011;5417;42.686;23.244;2023-06-14T15:43:13;9.57;;;8.77;;
10731;SDS011;5417;42.686;23.244;2023-06-14T15:45:41;10.27;;;9.37;;
10731;SDS011;5417;42.686;23.244;2023-06-14T15:48:10;10.90;;;9.90;;
10731;SDS011;5417;42.686;23.244;2023-06-14T15:50:37;10.37;;;9.50;;
10731;SDS011;5417;42.686;23.244;2023-06-14T15:53:03;10.43;;;9.50;;
10731;SDS011;5417;42.686;23.244;2023-06-14T15:55:30;11.20;;;10.10;;
10731;SDS011;5417;42.686;23.244;2023-06-14T15:57:57;10.40;;;9.60;;
10731;SDS011;5417;42.686;23.244;2023-06-14T16:00:24;12.23;;;11.13;;
10731;SDS011;5417;42.686;23.244;2023-06-14T16:02:53;11.50;;;10.50;;
10731;SDS011;5417;42.686;23.244;2023-06-14T16:05:19;11.40;;;10.50;;
10731;SDS011;5417;42.686;23.244;2023-06-14T16:07:46;12.00;;;10.90;;